createdAt,value
2018-02-13T00:00:49.910Z,8.02
2018-02-13T00:03:18.518Z,6.95
2018-02-13T00:05:46.490Z,7.03
2018-02-13T00:08:16.463Z,8.20
2018-02-13T00:10:44.458Z,7.00
2018-02-13T00:13:13.137Z,7.05
2018-02-13T00:15:41.172Z,7.82
2018-02-13T00:18:09.102Z,6.40
2018-02-13T00:20:36.993Z,6.80
2018-02-13T00:23:04.935Z,6.93
2018-02-13T00:25:32.930Z,7.35
2018-02-13T00:28:01.058Z,6.60
2018-02-13T00:30:29.691Z,6.90
2018-02-13T00:32:57.533Z,6.45
2018-02-13T00:35:25.510Z,6.20
2018-02-13T00:37:54.166Z,7.70
2018-02-13T00:40:22.843Z,6.53
2018-02-13T00:42:50.770Z,6.97
2018-02-13T00:45:18.766Z,6.93
2018-02-13T00:47:46.650Z,7.70
2018-02-13T00:50:14.715Z,6.78
2018-02-13T00:52:42.727Z,7.00
2018-02-13T00:55:10.651Z,6.65
2018-02-13T00:57:39.309Z,6.45
2018-02-13T01:00:07.239Z,6.80
2018-02-13T01:02:35.089Z,6.30
2018-02-13T01:05:03.172Z,5.90
2018-02-13T01:07:31.271Z,6.72
2018-02-13T01:09:59.213Z,7.30
2018-02-13T01:12:27.927Z,6.30
2018-02-13T01:14:55.858Z,6.22
2018-02-13T01:17:23.744Z,6.62
2018-02-13T01:19:51.834Z,6.22
2018-02-13T01:22:19.698Z,6.30
2018-02-13T01:24:47.592Z,5.87
2018-02-13T01:27:15.466Z,6.40
2018-02-13T01:29:43.350Z,6.40
2018-02-13T01:32:11.252Z,6.05
2018-02-13T01:34:39.167Z,6.47
2018-02-13T01:37:07.803Z,6.05
2018-02-13T01:39:35.991Z,5.87
2018-02-13T01:42:04.084Z,6.12
2018-02-13T01:44:32.067Z,5.45
2018-02-13T01:47:00.635Z,5.28
2018-02-13T01:49:28.486Z,5.55
2018-02-13T01:51:56.429Z,5.70
2018-02-13T01:54:24.316Z,5.15
2018-02-13T01:56:52.524Z,5.07
2018-02-13T01:59:20.388Z,4.95
2018-02-13T02:01:48.325Z,5.25
2018-02-13T02:04:16.204Z,4.82
2018-02-13T02:06:44.055Z,4.68
2018-02-13T02:09:12.207Z,4.57
2018-02-13T02:11:40.046Z,4.30
2018-02-13T02:14:07.894Z,5.12
2018-02-13T02:16:36.540Z,5.00
2018-02-13T02:19:04.414Z,5.25
2018-02-13T02:21:32.475Z,5.75
2018-02-13T02:24:00.479Z,5.10
2018-02-13T02:26:29.102Z,5.12
2018-02-13T02:28:56.984Z,4.90
2018-02-13T02:31:24.854Z,5.00
2018-02-13T02:33:53.658Z,5.35
2018-02-13T02:36:21.642Z,5.60
2018-02-13T02:38:49.538Z,5.40
2018-02-13T02:41:18.251Z,4.55
2018-02-13T02:43:46.111Z,4.95
2018-02-13T02:46:13.972Z,4.70
2018-02-13T02:48:41.898Z,4.65
2018-02-13T02:51:09.748Z,5.15
2018-02-13T02:53:37.666Z,4.72
2018-02-13T02:56:05.501Z,4.82
2018-02-13T02:58:34.117Z,4.93
2018-02-13T03:01:02.034Z,4.50
2018-02-13T03:03:29.913Z,4.82
2018-02-13T03:05:58.601Z,4.70
2018-02-13T03:08:26.486Z,5.10
2018-02-13T03:10:55.178Z,4.93
2018-02-13T03:13:23.042Z,4.68
2018-02-13T03:15:51.697Z,4.72
2018-02-13T03:18:19.610Z,5.00
2018-02-13T03:20:47.580Z,4.90
2018-02-13T03:23:15.504Z,4.65
2018-02-13T03:25:43.409Z,4.90
2018-02-13T03:28:11.650Z,4.65
2018-02-13T03:30:39.523Z,4.72
2018-02-13T03:33:07.419Z,5.10
2018-02-13T03:35:35.357Z,4.45
2018-02-13T03:38:04.070Z,4.60
2018-02-13T03:40:32.038Z,4.80
2018-02-13T03:42:59.926Z,5.12
2018-02-13T03:45:27.820Z,5.50
2018-02-13T03:47:55.823Z,4.95
2018-02-13T03:50:24.550Z,5.35
2018-02-13T03:52:54.628Z,4.68
2018-02-13T03:55:22.762Z,4.85
2018-02-13T03:57:50.634Z,5.35
2018-02-13T04:00:26.923Z,4.68
2018-02-13T04:02:54.761Z,4.55
2018-02-13T04:05:22.835Z,4.50
2018-02-13T04:07:50.819Z,4.62
2018-02-13T04:10:18.654Z,4.78
2018-02-13T04:12:48.468Z,4.55
2018-02-13T04:15:16.477Z,4.60
2018-02-13T04:17:44.432Z,4.75
2018-02-13T04:20:12.310Z,4.82
2018-02-13T04:22:41.108Z,4.70
2018-02-13T04:25:09.710Z,4.68
2018-02-13T04:27:37.949Z,5.07
2018-02-13T04:30:06.848Z,4.97
2018-02-13T04:32:35.536Z,5.30
2018-02-13T04:35:04.336Z,6.07
2018-02-13T04:37:33.007Z,6.57
2018-02-13T04:40:01.744Z,6.40
2018-02-13T04:42:30.505Z,5.32
2018-02-13T04:44:58.421Z,5.07
2018-02-13T04:47:26.360Z,5.30
2018-02-13T04:49:54.206Z,4.50
2018-02-13T04:52:22.350Z,5.62
2018-02-13T04:54:51.084Z,4.82
2018-02-13T04:57:19.172Z,5.57
2018-02-13T04:59:47.082Z,5.50
2018-02-13T05:02:15.658Z,5.12
2018-02-13T05:04:44.262Z,5.40
2018-02-13T05:07:12.334Z,4.80
2018-02-13T05:09:40.309Z,4.82
2018-02-13T05:12:08.196Z,6.07
2018-02-13T05:14:36.086Z,5.12
2018-02-13T05:17:04.057Z,5.35
2018-02-13T05:19:31.947Z,5.28
2018-02-13T05:22:00.890Z,5.75
2018-02-13T05:24:28.779Z,6.30
2018-02-13T05:26:56.724Z,5.22
2018-02-13T05:29:24.640Z,5.35
2018-02-13T05:31:52.575Z,5.35
2018-02-13T05:34:20.541Z,6.03
2018-02-13T05:36:48.470Z,6.03
2018-02-13T05:39:16.321Z,5.20
2018-02-13T05:41:44.242Z,5.78
2018-02-13T05:44:12.331Z,5.43
2018-02-13T05:46:40.543Z,5.50
2018-02-13T05:49:08.543Z,5.57
2018-02-13T05:51:36.452Z,5.35
2018-02-13T05:54:05.057Z,5.40
2018-02-13T05:56:32.989Z,5.40
2018-02-13T05:59:00.962Z,6.05
2018-02-13T06:01:28.824Z,5.62
2018-02-13T06:03:56.783Z,5.57
2018-02-13T06:06:24.701Z,5.90
2018-02-13T06:08:52.590Z,5.10
2018-02-13T06:11:20.533Z,11.20
2018-02-13T06:13:48.606Z,7.40
2018-02-13T06:16:16.449Z,5.70
2018-02-13T06:18:45.306Z,5.87
2018-02-13T06:21:13.224Z,5.72
2018-02-13T06:23:41.207Z,5.03
2018-02-13T06:26:09.123Z,5.90
2018-02-13T06:28:37.029Z,5.35
2018-02-13T06:31:04.997Z,5.45
2018-02-13T06:33:33.118Z,5.60
2018-02-13T06:36:01.177Z,5.50
2018-02-13T06:38:29.845Z,4.97
2018-02-13T06:40:57.753Z,5.20
2018-02-13T06:43:25.624Z,5.45
2018-02-13T06:45:53.535Z,6.30
2018-02-13T06:48:21.787Z,6.20
2018-02-13T06:50:49.758Z,6.05
2018-02-13T06:53:19.577Z,6.00
2018-02-13T06:55:47.766Z,6.05
2018-02-13T06:58:15.774Z,5.82
2018-02-13T07:00:43.676Z,5.78
2018-02-13T07:03:13.752Z,6.37
2018-02-13T07:05:43.838Z,6.28
2018-02-13T07:08:11.894Z,5.57
2018-02-13T07:10:40.453Z,5.40
2018-02-13T07:13:09.273Z,6.28
2018-02-13T07:15:38.045Z,6.68
2018-02-13T07:18:06.785Z,6.65
2018-02-13T07:20:35.795Z,6.72
2018-02-13T07:23:03.747Z,6.40
2018-02-13T07:25:32.022Z,6.30
2018-02-13T07:28:00.852Z,6.47
2018-02-13T07:30:29.626Z,6.25
2018-02-13T07:32:58.327Z,5.53
2018-02-13T07:35:26.333Z,6.10
2018-02-13T07:37:54.472Z,5.40
2018-02-13T07:40:23.255Z,6.90
2018-02-13T07:42:52.166Z,5.80
2018-02-13T07:45:20.233Z,5.60
2018-02-13T07:47:49.147Z,6.37
2018-02-13T07:50:17.352Z,6.10
2018-02-13T07:52:45.331Z,5.25
2018-02-13T07:55:13.275Z,6.05
2018-02-13T07:57:41.429Z,6.12
2018-02-13T08:00:09.315Z,5.65
2018-02-13T08:02:37.272Z,5.43
2018-02-13T08:05:05.336Z,5.00
2018-02-13T08:07:33.225Z,4.97
2018-02-13T08:10:01.177Z,4.85
2018-02-13T08:12:29.701Z,5.13
2018-02-13T08:14:58.457Z,4.15
2018-02-13T08:17:27.124Z,4.22
2018-02-13T08:19:55.006Z,4.55
2018-02-13T08:22:23.858Z,4.80
2018-02-13T08:24:51.831Z,4.77
2018-02-13T08:27:19.850Z,4.47
2018-02-13T08:29:48.074Z,4.65
2018-02-13T08:32:15.990Z,5.25
2018-02-13T08:34:44.155Z,4.50
2018-02-13T08:37:12.289Z,4.90
2018-02-13T08:39:40.207Z,5.13
2018-02-13T08:42:08.173Z,4.83
2018-02-13T08:44:35.998Z,4.43
2018-02-13T08:47:04.026Z,4.43
2018-02-13T08:49:32.577Z,4.57
2018-02-13T08:52:00.741Z,4.70
2018-02-13T08:54:28.731Z,5.10
2018-02-13T08:56:56.641Z,4.60
2018-02-13T08:59:24.762Z,5.28
2018-02-13T09:01:52.778Z,5.00
2018-02-13T09:04:20.891Z,4.35
2018-02-13T09:06:48.946Z,4.60
2018-02-13T09:09:17.074Z,4.90
2018-02-13T09:11:45.893Z,4.82
2018-02-13T09:14:13.916Z,4.55
2018-02-13T09:16:42.366Z,4.45
2018-02-13T09:19:10.484Z,5.53
2018-02-13T09:21:38.464Z,4.47
2018-02-13T09:24:06.672Z,4.97
2018-02-13T09:26:34.726Z,3.90
2018-02-13T09:29:02.916Z,4.12
2018-02-13T09:31:31.270Z,4.00
2018-02-13T09:33:59.483Z,3.67
2018-02-13T09:36:27.403Z,3.40
2018-02-13T09:38:55.863Z,3.58
2018-02-13T09:41:24.482Z,3.80
2018-02-13T09:43:53.404Z,3.78
2018-02-13T09:46:21.517Z,3.65
2018-02-13T09:48:49.448Z,3.40
2018-02-13T09:51:17.398Z,5.25
2018-02-13T09:53:45.360Z,3.67
2018-02-13T09:56:13.585Z,3.45
2018-02-13T09:58:41.745Z,3.37
2018-02-13T10:01:09.641Z,3.22
2018-02-13T10:03:37.526Z,3.80
2018-02-13T10:06:05.635Z,3.50
2018-02-13T10:08:33.702Z,3.70
2018-02-13T10:11:01.794Z,5.37
2018-02-13T10:13:29.829Z,3.60
2018-02-13T10:15:58.455Z,4.33
2018-02-13T10:18:27.279Z,3.08
2018-02-13T10:20:55.406Z,3.78
2018-02-13T10:23:23.443Z,3.42
2018-02-13T10:25:51.489Z,3.23
2018-02-13T10:28:19.441Z,3.60
2018-02-13T10:30:48.227Z,3.70
2018-02-13T10:33:17.060Z,3.63
2018-02-13T10:35:45.003Z,3.73
2018-02-13T10:38:12.872Z,3.10
2018-02-13T10:40:40.954Z,3.30
2018-02-13T10:43:08.832Z,3.37
2018-02-13T10:45:36.747Z,3.70
2018-02-13T10:48:05.484Z,3.00
2018-02-13T10:50:33.362Z,2.63
2018-02-13T10:53:01.528Z,2.37
2018-02-13T10:55:29.540Z,2.63
2018-02-13T10:57:58.586Z,2.73
2018-02-13T11:00:31.170Z,2.73
2018-02-13T11:02:59.851Z,2.50
2018-02-13T11:05:27.766Z,2.70
2018-02-13T11:07:56.488Z,3.60
2018-02-13T11:10:24.430Z,3.23
2018-02-13T11:12:53.079Z,2.40
2018-02-13T11:15:21.190Z,2.13
2018-02-13T11:17:49.818Z,2.33
2018-02-13T11:20:17.826Z,2.00
2018-02-13T11:22:45.848Z,2.33
2018-02-13T11:25:13.743Z,2.80
2018-02-13T11:27:41.919Z,2.10
2018-02-13T11:30:09.841Z,1.90
2018-02-13T11:32:37.870Z,2.07
2018-02-13T11:35:06.638Z,2.53
2018-02-13T11:37:34.808Z,1.90
2018-02-13T11:40:03.740Z,2.63
2018-02-13T11:42:31.949Z,1.70
2018-02-13T11:45:00.254Z,2.53
2018-02-13T11:47:28.303Z,1.53
2018-02-13T11:49:56.245Z,1.70
2018-02-13T11:52:24.312Z,1.40
2018-02-13T11:54:52.494Z,1.67
2018-02-13T11:57:21.615Z,2.10
2018-02-13T11:59:50.462Z,2.53
2018-02-13T12:02:19.167Z,1.60
2018-02-13T12:04:48.126Z,1.73
2018-02-13T12:07:16.950Z,1.80
2018-02-13T12:09:44.836Z,1.63
2018-02-13T12:12:13.123Z,1.60
2018-02-13T12:14:41.108Z,1.40
2018-02-13T12:17:09.162Z,1.40
2018-02-13T12:19:37.352Z,2.00
2018-02-13T12:22:06.072Z,1.60
2018-02-13T12:24:33.982Z,1.93
2018-02-13T12:27:02.362Z,2.00
2018-02-13T12:29:30.385Z,1.40
2018-02-13T12:31:59.231Z,1.93
2018-02-13T12:34:27.156Z,2.33
2018-02-13T12:36:55.079Z,2.00
2018-02-13T12:39:23.014Z,1.90
2018-02-13T12:41:51.140Z,3.67
2018-02-13T12:44:19.372Z,2.27
2018-02-13T12:46:48.161Z,7.10
2018-02-13T12:49:16.175Z,1.90
2018-02-13T12:51:46.520Z,2.17
2018-02-13T12:54:14.568Z,2.20
2018-02-13T12:56:43.427Z,3.00
2018-02-13T12:59:11.485Z,3.00
2018-02-13T13:01:40.341Z,2.53
2018-02-13T13:04:08.395Z,2.73
2018-02-13T13:06:36.421Z,2.60
2018-02-13T13:09:04.921Z,2.90
2018-02-13T13:11:33.820Z,3.00
2018-02-13T13:14:02.897Z,2.90
2018-02-13T13:16:31.144Z,2.50
2018-02-13T13:18:59.078Z,2.00
2018-02-13T13:21:27.100Z,2.17
2018-02-13T13:23:55.070Z,2.30
2018-02-13T13:26:24.017Z,1.90
2018-02-13T13:28:54.100Z,2.13
2018-02-13T13:31:23.661Z,1.97
2018-02-13T13:33:51.818Z,2.20
2018-02-13T13:36:20.587Z,2.53
2018-02-13T13:38:48.815Z,2.10
2018-02-13T13:41:17.062Z,2.60
2018-02-13T13:43:45.561Z,2.47
2018-02-13T13:46:13.914Z,2.20
2018-02-13T13:48:42.257Z,2.47
2018-02-13T13:51:10.696Z,2.50
2018-02-13T13:53:38.674Z,2.10
2018-02-13T13:56:07.421Z,2.57
2018-02-13T13:58:36.490Z,2.73
2018-02-13T14:04:04.983Z,2.70
2018-02-13T14:06:34.278Z,2.50
2018-02-13T14:09:03.724Z,2.63
2018-02-13T14:11:32.330Z,3.10
2018-02-13T14:14:00.621Z,2.43
2018-02-13T14:16:28.817Z,2.30
2018-02-13T14:18:57.982Z,2.50
2018-02-13T14:21:26.289Z,2.20
2018-02-13T14:23:55.537Z,2.60
2018-02-13T14:26:23.728Z,2.80
2018-02-13T14:28:53.262Z,2.77
2018-02-13T14:31:22.369Z,2.63
2018-02-13T14:33:51.451Z,2.40
2018-02-13T14:36:19.585Z,2.60
2018-02-13T14:38:47.777Z,2.80
2018-02-13T14:41:16.067Z,2.83
2018-02-13T14:43:44.997Z,3.37
2018-02-13T14:46:13.233Z,2.73
2018-02-13T14:48:42.188Z,3.07
2018-02-13T14:51:10.764Z,3.40
2018-02-13T14:53:38.843Z,2.60
2018-02-13T14:56:07.290Z,2.80
2018-02-13T14:58:35.569Z,3.10
2018-02-13T15:01:04.460Z,3.53
2018-02-13T15:03:32.782Z,2.80
2018-02-13T15:06:01.147Z,3.40
2018-02-13T15:08:30.467Z,2.53
2018-02-13T15:10:58.547Z,2.70
2018-02-13T15:13:27.504Z,3.10
2018-02-13T15:15:55.701Z,2.27
2018-02-13T15:18:24.232Z,2.40
2018-02-13T15:20:52.543Z,3.70
2018-02-13T15:23:20.831Z,2.80
2018-02-13T15:25:48.913Z,3.73
2018-02-13T15:28:16.987Z,3.60
2018-02-13T15:30:45.179Z,3.40
2018-02-13T15:33:14.538Z,3.90
2018-02-13T15:35:42.658Z,3.40
2018-02-13T15:38:10.895Z,3.70
2018-02-13T15:40:39.933Z,4.33
2018-02-13T15:43:08.257Z,3.97
2018-02-13T15:45:36.397Z,3.37
2018-02-13T15:48:04.749Z,2.50
2018-02-13T15:50:32.872Z,2.80
2018-02-13T15:53:01.201Z,4.60
2018-02-13T15:55:29.533Z,3.30
2018-02-13T15:57:58.531Z,3.60
2018-02-13T16:00:26.584Z,3.47
2018-02-13T16:02:54.683Z,3.53
2018-02-13T16:05:23.099Z,3.47
2018-02-13T16:07:51.412Z,3.83
2018-02-13T16:10:19.528Z,2.62
2018-02-13T16:12:48.333Z,2.80
2018-02-13T16:15:16.365Z,3.13
2018-02-13T16:17:45.231Z,3.40
2018-02-13T16:20:13.967Z,4.10
2018-02-13T16:22:42.712Z,3.80
2018-02-13T16:25:10.893Z,3.47
2018-02-13T16:27:38.921Z,3.15
2018-02-13T16:30:07.029Z,3.50
2018-02-13T16:32:35.354Z,4.22
2018-02-13T16:35:03.700Z,3.42
2018-02-13T16:37:31.987Z,3.15
2018-02-13T16:40:00.919Z,3.20
2018-02-13T16:42:29.398Z,3.27
2018-02-13T16:44:57.920Z,3.53
2018-02-13T16:47:26.691Z,3.95
2018-02-13T16:49:54.669Z,5.68
2018-02-13T16:52:22.812Z,6.40
2018-02-13T16:54:51.112Z,6.90
2018-02-13T16:57:19.185Z,7.55
2018-02-13T16:59:47.152Z,7.82
2018-02-13T17:02:15.250Z,7.72
2018-02-13T17:04:43.534Z,8.13
2018-02-13T17:07:11.696Z,9.27
2018-02-13T17:09:39.796Z,7.22
2018-02-13T17:12:09.715Z,7.62
2018-02-13T17:14:37.775Z,7.72
2018-02-13T17:17:06.089Z,8.07
2018-02-13T17:19:34.156Z,7.40
2018-02-13T17:22:02.430Z,7.60
2018-02-13T17:24:30.838Z,7.40
2018-02-13T17:26:59.020Z,7.35
2018-02-13T17:29:27.799Z,8.13
2018-02-13T17:31:56.082Z,8.48
2018-02-13T17:34:24.412Z,7.30
2018-02-13T17:36:52.634Z,7.68
2018-02-13T17:39:20.989Z,8.10
2018-02-13T17:41:49.382Z,8.75
2018-02-13T17:44:17.828Z,8.18
2018-02-13T17:46:46.130Z,7.65
2018-02-13T17:49:14.353Z,8.45
2018-02-13T17:51:42.396Z,9.05
2018-02-13T17:54:11.491Z,9.15
2018-02-13T17:56:39.683Z,9.52
2018-02-13T17:59:08.639Z,10.20
2018-02-13T18:01:36.746Z,11.05
2018-02-13T18:04:05.597Z,10.85
2018-02-13T18:06:33.654Z,11.43
2018-02-13T18:09:02.154Z,10.23
2018-02-13T18:11:30.488Z,10.75
2018-02-13T18:13:58.523Z,10.75
2018-02-13T18:16:26.598Z,10.00
2018-02-13T18:18:56.582Z,10.75
2018-02-13T18:21:25.062Z,10.60
2018-02-13T18:23:54.221Z,10.07
2018-02-13T18:26:22.883Z,11.48
2018-02-13T18:28:51.787Z,11.35
2018-02-13T18:31:20.613Z,10.90
2018-02-13T18:33:49.138Z,10.77
2018-02-13T18:36:17.498Z,9.68
2018-02-13T18:38:46.176Z,10.52
2018-02-13T18:41:14.490Z,9.98
2018-02-13T18:43:42.876Z,9.73
2018-02-13T18:46:10.973Z,9.20
2018-02-13T18:48:39.311Z,9.45
2018-02-13T18:51:08.372Z,10.10
2018-02-13T18:53:36.713Z,9.35
2018-02-13T18:56:04.762Z,8.77
2018-02-13T18:58:33.117Z,8.40
2018-02-13T19:01:01.480Z,9.38
2018-02-13T19:03:29.760Z,9.27
2018-02-13T19:05:57.774Z,8.88
2018-02-13T19:08:26.077Z,9.38
2018-02-13T19:10:54.581Z,9.95
2018-02-13T19:13:23.051Z,9.48
2018-02-13T19:15:51.257Z,9.48
2018-02-13T19:18:20.247Z,9.95
2018-02-13T19:20:48.684Z,9.45
2018-02-13T19:23:16.903Z,8.98
2018-02-13T19:25:46.111Z,9.85
2018-02-13T19:28:14.818Z,12.15
2018-02-13T19:30:43.239Z,12.90
2018-02-13T19:33:11.451Z,10.13
2018-02-13T19:35:39.521Z,10.25
2018-02-13T19:38:09.215Z,9.60
2018-02-13T19:40:38.327Z,12.00
2018-02-13T19:43:07.294Z,10.18
2018-02-13T19:45:35.840Z,10.85
2018-02-13T19:48:04.034Z,10.85
2018-02-13T19:50:32.175Z,10.00
2018-02-13T19:53:01.656Z,10.60
2018-02-13T19:55:32.072Z,10.52
2018-02-13T19:58:00.992Z,10.35
2018-02-13T20:00:29.542Z,12.80
2018-02-13T20:02:58.044Z,10.98
2018-02-13T20:05:26.996Z,10.63
2018-02-13T20:07:56.127Z,10.20
2018-02-13T20:10:25.451Z,10.82
2018-02-13T20:12:54.232Z,10.68
2018-02-13T20:15:23.636Z,9.57
2018-02-13T20:17:59.000Z,9.50
2018-02-13T20:20:27.916Z,9.48
2018-02-13T20:22:57.199Z,9.23
2018-02-13T20:25:26.134Z,9.10
2018-02-13T20:27:55.371Z,10.00
2018-02-13T20:30:23.404Z,9.52
2018-02-13T20:32:52.696Z,10.55
2018-02-13T20:35:34.397Z,10.20
2018-02-13T20:38:04.306Z,9.90
2018-02-13T20:40:33.582Z,10.02
2018-02-13T20:43:01.576Z,9.32
2018-02-13T20:45:30.252Z,9.68
2018-02-13T20:48:00.170Z,9.82
2018-02-13T20:50:30.233Z,10.30
2018-02-13T20:52:58.268Z,9.35
2018-02-13T20:55:26.955Z,15.38
2018-02-13T20:57:55.171Z,10.02
2018-02-13T21:00:30.956Z,11.77
2018-02-13T21:03:03.203Z,11.07
2018-02-13T21:05:37.412Z,10.70
2018-02-13T21:08:07.595Z,10.90
2018-02-13T21:10:35.590Z,14.65
2018-02-13T21:13:59.284Z,12.82
2018-02-13T21:16:41.433Z,10.02
2018-02-13T21:19:19.762Z,11.35
2018-02-13T21:21:49.111Z,11.20
2018-02-13T21:24:17.876Z,10.90
2018-02-13T21:26:55.006Z,12.43
2018-02-13T21:29:45.783Z,12.63
2018-02-13T21:32:18.518Z,11.38
2018-02-13T21:34:59.696Z,10.85
2018-02-13T21:37:30.747Z,11.25
2018-02-13T21:39:59.463Z,12.23
2018-02-13T21:42:28.273Z,13.25
2018-02-13T21:44:57.167Z,13.93
2018-02-13T21:47:26.373Z,12.57
2018-02-13T21:49:54.376Z,13.88
2018-02-13T21:52:22.391Z,13.27
2018-02-13T21:54:55.123Z,12.05
2018-02-13T21:57:23.706Z,13.27
2018-02-13T21:59:51.736Z,12.65
2018-02-13T22:02:23.976Z,11.30
2018-02-13T22:04:55.121Z,12.80
2018-02-13T22:07:25.540Z,13.50
2018-02-13T22:09:58.488Z,12.43
2018-02-13T22:12:31.512Z,12.18
2018-02-13T22:15:13.929Z,12.23
2018-02-13T22:17:49.905Z,15.25
2018-02-13T22:20:24.410Z,13.73
2018-02-13T22:23:09.778Z,13.52
2018-02-13T22:25:37.991Z,13.23
2018-02-13T22:28:05.924Z,12.43
2018-02-13T22:30:34.644Z,12.43
2018-02-13T22:33:02.675Z,12.80
2018-02-13T22:35:31.395Z,13.27
2018-02-13T22:37:59.429Z,13.15
2018-02-13T22:40:28.294Z,13.13
2018-02-13T22:42:56.329Z,13.75
2018-02-13T22:45:24.463Z,13.25
2018-02-13T22:47:52.400Z,12.52
2018-02-13T22:50:20.344Z,11.57
2018-02-13T22:52:48.300Z,12.80
2018-02-13T22:55:17.093Z,12.05
2018-02-13T22:57:45.100Z,13.43
2018-02-13T23:00:13.343Z,14.07
2018-02-13T23:02:41.516Z,13.90
2018-02-13T23:05:09.664Z,13.98
2018-02-13T23:07:38.655Z,14.68
2018-02-13T23:10:07.352Z,14.40
2018-02-13T23:12:36.091Z,14.43
2018-02-13T23:15:04.342Z,13.45
2018-02-13T23:17:32.545Z,13.73
2018-02-13T23:20:00.610Z,13.52
2018-02-13T23:22:28.663Z,13.23
2018-02-13T23:24:56.778Z,13.45
2018-02-13T23:27:24.948Z,12.68
2018-02-13T23:29:53.148Z,11.20
2018-02-13T23:32:21.253Z,10.98
2018-02-13T23:34:49.207Z,10.55
2018-02-13T23:37:17.327Z,10.45
2018-02-13T23:39:45.423Z,10.35
2018-02-13T23:42:14.373Z,10.30
2018-02-13T23:44:42.434Z,9.57
2018-02-13T23:47:10.620Z,10.65
2018-02-13T23:49:39.529Z,10.63
2018-02-13T23:52:07.704Z,10.07
2018-02-13T23:54:36.317Z,10.70
2018-02-13T23:57:04.426Z,9.93
2018-02-13T23:59:32.704Z,10.68
